sensor_id;sensor_type;location;lat;lon;timestamp;P1;durP1;ratioP1;P2;durP2;ratioP2
46651;SDS011;32377;52.182;5.398;2023-05-10T00:02:24;71.18;;;33.28;;
46651;SDS011;32377;52.182;5.398;2023-05-10T00:04:49;72.30;;;34.08;;
46651;SDS011;32377;52.182;5.398;2023-05-10T00:07:15;70.78;;;31.88;;
46651;SDS011;32377;52.182;5.398;2023-05-10T00:09:42;66.32;;;31.27;;
46651;SDS011;32377;52.182;5.398;2023-05-10T00:12:08;68.53;;;31.70;;
46651;SDS011;32377;52.182;5.398;2023-05-10T00:14:34;62.88;;;31.58;;
46651;SDS011;32377;52.182;5.398;2023-05-10T00:16:59;72.68;;;34.05;;
46651;SDS011;32377;52.182;5.398;2023-05-10T00:19:25;74.55;;;33.45;;
46651;SDS011;32377;52.182;5.398;2023-05-10T00:21:50;79.50;;;32.30;;
46651;SDS011;32377;52.182;5.398;2023-05-10T00:24:16;67.05;;;31.83;;
46651;SDS011;32377;52.182;5.398;2023-05-10T00:26:42;68.55;;;32.08;;
46651;SDS011;32377;52.182;5.398;2023-05-10T00:29:07;73.30;;;32.28;;
46651;SDS011;32377;52.182;5.398;2023-05-10T00:31:33;71.53;;;31.90;;
46651;SDS011;32377;52.182;5.398;2023-05-10T00:33:58;72.55;;;33.38;;
46651;SDS011;32377;52.182;5.398;2023-05-10T00:36:24;78.53;;;31.83;;
46651;SDS011;32377;52.182;5.398;2023-05-10T00:38:49;75.72;;;33.22;;
46651;SDS011;32377;52.182;5.398;2023-05-10T00:41:15;77.03;;;33.85;;
46651;SDS011;32377;52.182;5.398;2023-05-10T00:43:41;73.75;;;33.38;;
46651;SDS011;32377;52.182;5.398;2023-05-10T00:46:07;75.45;;;33.03;;
46651;SDS011;32377;52.182;5.398;2023-05-10T00:48:32;77.45;;;33.10;;
46651;SDS011;32377;52.182;5.398;2023-05-10T00:50:59;80.65;;;34.25;;
46651;SDS011;32377;52.182;5.398;2023-05-10T00:53:26;75.95;;;35.42;;
46651;SDS011;32377;52.182;5.398;2023-05-10T00:55:51;77.18;;;33.67;;
46651;SDS011;32377;52.182;5.398;2023-05-10T00:58:17;77.20;;;33.35;;
46651;SDS011;32377;52.182;5.398;2023-05-10T01:00:43;78.60;;;33.78;;
46651;SDS011;32377;52.182;5.398;2023-05-10T01:03:11;74.60;;;32.70;;
46651;SDS011;32377;52.182;5.398;2023-05-10T01:05:37;79.38;;;35.75;;
46651;SDS011;32377;52.182;5.398;2023-05-10T01:08:03;88.68;;;36.45;;
46651;SDS011;32377;52.182;5.398;2023-05-10T01:10:29;92.47;;;39.65;;
46651;SDS011;32377;52.182;5.398;2023-05-10T01:12:55;99.75;;;43.92;;
46651;SDS011;32377;52.182;5.398;2023-05-10T01:15:21;100.82;;;45.30;;
46651;SDS011;32377;52.182;5.398;2023-05-10T01:17:48;105.15;;;45.67;;
46651;SDS011;32377;52.182;5.398;2023-05-10T01:20:14;104.03;;;45.30;;
46651;SDS011;32377;52.182;5.398;2023-05-10T01:25:28;117.35;;;51.42;;
46651;SDS011;32377;52.182;5.398;2023-05-10T01:29:13;120.88;;;51.97;;
46651;SDS011;32377;52.182;5.398;2023-05-10T01:34:38;119.95;;;50.10;;
46651;SDS011;32377;52.182;5.398;2023-05-10T01:37:10;117.82;;;52.47;;
46651;SDS011;32377;52.182;5.398;2023-05-10T01:39:45;130.65;;;53.35;;
46651;SDS011;32377;52.182;5.398;2023-05-10T01:42:16;125.88;;;52.75;;
46651;SDS011;32377;52.182;5.398;2023-05-10T01:44:49;127.75;;;52.50;;
46651;SDS011;32377;52.182;5.398;2023-05-10T01:50:01;118.68;;;50.30;;
46651;SDS011;32377;52.182;5.398;2023-05-10T01:52:41;125.72;;;52.92;;
46651;SDS011;32377;52.182;5.398;2023-05-10T01:55:09;124.95;;;53.28;;
46651;SDS011;32377;52.182;5.398;2023-05-10T01:57:39;123.63;;;52.13;;
46651;SDS011;32377;52.182;5.398;2023-05-10T02:00:07;128.20;;;54.17;;
46651;SDS011;32377;52.182;5.398;2023-05-10T02:02:37;126.55;;;52.70;;
46651;SDS011;32377;52.182;5.398;2023-05-10T02:05:07;121.75;;;51.03;;
46651;SDS011;32377;52.182;5.398;2023-05-10T02:07:34;118.05;;;50.20;;
46651;SDS011;32377;52.182;5.398;2023-05-10T02:10:04;126.40;;;50.28;;
46651;SDS011;32377;52.182;5.398;2023-05-10T02:12:35;117.53;;;49.63;;
46651;SDS011;32377;52.182;5.398;2023-05-10T02:15:04;124.25;;;50.10;;
46651;SDS011;32377;52.182;5.398;2023-05-10T02:17:32;120.30;;;50.40;;
46651;SDS011;32377;52.182;5.398;2023-05-10T02:19:59;117.32;;;50.22;;
46651;SDS011;32377;52.182;5.398;2023-05-10T02:22:26;122.20;;;50.42;;
46651;SDS011;32377;52.182;5.398;2023-05-10T02:24:54;133.55;;;51.53;;
46651;SDS011;32377;52.182;5.398;2023-05-10T02:27:23;137.40;;;52.67;;
46651;SDS011;32377;52.182;5.398;2023-05-10T02:29:50;135.60;;;51.53;;
46651;SDS011;32377;52.182;5.398;2023-05-10T02:32:17;129.95;;;51.15;;
46651;SDS011;32377;52.182;5.398;2023-05-10T02:34:44;136.95;;;51.90;;
46651;SDS011;32377;52.182;5.398;2023-05-10T02:37:11;135.73;;;50.42;;
46651;SDS011;32377;52.182;5.398;2023-05-10T02:39:39;135.55;;;53.17;;
46651;SDS011;32377;52.182;5.398;2023-05-10T02:42:08;128.30;;;51.03;;
46651;SDS011;32377;52.182;5.398;2023-05-10T02:44:40;140.02;;;52.42;;
46651;SDS011;32377;52.182;5.398;2023-05-10T02:47:06;129.30;;;50.85;;
46651;SDS011;32377;52.182;5.398;2023-05-10T02:49:32;135.02;;;50.60;;
46651;SDS011;32377;52.182;5.398;2023-05-10T02:52:00;126.50;;;49.92;;
46651;SDS011;32377;52.182;5.398;2023-05-10T02:54:30;133.95;;;51.22;;
46651;SDS011;32377;52.182;5.398;2023-05-10T02:57:00;131.40;;;51.40;;
46651;SDS011;32377;52.182;5.398;2023-05-10T02:59:29;126.63;;;49.88;;
46651;SDS011;32377;52.182;5.398;2023-05-10T03:01:55;136.57;;;52.53;;
46651;SDS011;32377;52.182;5.398;2023-05-10T03:04:21;132.77;;;51.35;;
46651;SDS011;32377;52.182;5.398;2023-05-10T03:06:47;136.00;;;52.90;;
46651;SDS011;32377;52.182;5.398;2023-05-10T03:09:13;137.75;;;51.28;;
46651;SDS011;32377;52.182;5.398;2023-05-10T03:19:27;141.45;;;49.75;;
46651;SDS011;32377;52.182;5.398;2023-05-10T03:21:59;147.68;;;51.90;;
46651;SDS011;32377;52.182;5.398;2023-05-10T03:24:33;140.40;;;49.53;;
46651;SDS011;32377;52.182;5.398;2023-05-10T03:27:01;148.05;;;50.55;;
46651;SDS011;32377;52.182;5.398;2023-05-10T03:29:29;141.93;;;50.35;;
46651;SDS011;32377;52.182;5.398;2023-05-10T03:31:57;154.73;;;50.63;;
46651;SDS011;32377;52.182;5.398;2023-05-10T03:34:24;154.15;;;50.92;;
46651;SDS011;32377;52.182;5.398;2023-05-10T03:36:50;157.52;;;53.05;;
46651;SDS011;32377;52.182;5.398;2023-05-10T03:39:16;155.75;;;54.08;;
46651;SDS011;32377;52.182;5.398;2023-05-10T03:41:42;163.20;;;53.00;;
46651;SDS011;32377;52.182;5.398;2023-05-10T03:44:07;156.98;;;52.95;;
46651;SDS011;32377;52.182;5.398;2023-05-10T03:46:33;156.73;;;52.40;;
46651;SDS011;32377;52.182;5.398;2023-05-10T03:48:58;156.80;;;53.30;;
46651;SDS011;32377;52.182;5.398;2023-05-10T03:51:24;156.15;;;53.20;;
46651;SDS011;32377;52.182;5.398;2023-05-10T03:53:53;152.27;;;52.30;;
46651;SDS011;32377;52.182;5.398;2023-05-10T03:59:23;165.90;;;54.05;;
46651;SDS011;32377;52.182;5.398;2023-05-10T04:01:48;160.13;;;54.45;;
46651;SDS011;32377;52.182;5.398;2023-05-10T04:04:14;171.68;;;55.60;;
46651;SDS011;32377;52.182;5.398;2023-05-10T04:06:39;162.52;;;55.75;;
46651;SDS011;32377;52.182;5.398;2023-05-10T04:09:05;169.15;;;57.42;;
46651;SDS011;32377;52.182;5.398;2023-05-10T04:11:30;176.93;;;58.67;;
46651;SDS011;32377;52.182;5.398;2023-05-10T04:13:56;181.32;;;59.72;;
46651;SDS011;32377;52.182;5.398;2023-05-10T04:16:22;167.10;;;55.80;;
46651;SDS011;32377;52.182;5.398;2023-05-10T04:18:47;170.82;;;58.65;;
46651;SDS011;32377;52.182;5.398;2023-05-10T04:21:13;179.07;;;59.50;;
46651;SDS011;32377;52.182;5.398;2023-05-10T04:23:39;178.57;;;59.92;;
46651;SDS011;32377;52.182;5.398;2023-05-10T04:26:05;186.60;;;61.75;;
46651;SDS011;32377;52.182;5.398;2023-05-10T04:28:31;195.63;;;61.13;;
46651;SDS011;32377;52.182;5.398;2023-05-10T04:31:00;171.52;;;58.40;;
46651;SDS011;32377;52.182;5.398;2023-05-10T04:33:30;179.90;;;59.83;;
46651;SDS011;32377;52.182;5.398;2023-05-10T04:35:56;170.43;;;58.60;;
46651;SDS011;32377;52.182;5.398;2023-05-10T04:38:22;173.15;;;57.83;;
46651;SDS011;32377;52.182;5.398;2023-05-10T04:40:47;153.20;;;57.17;;
46651;SDS011;32377;52.182;5.398;2023-05-10T04:43:13;143.30;;;54.53;;
46651;SDS011;32377;52.182;5.398;2023-05-10T04:45:39;146.48;;;55.47;;
46651;SDS011;32377;52.182;5.398;2023-05-10T04:48:04;140.65;;;52.80;;
46651;SDS011;32377;52.182;5.398;2023-05-10T04:50:30;141.77;;;55.45;;
46651;SDS011;32377;52.182;5.398;2023-05-10T04:52:56;140.50;;;52.63;;
46651;SDS011;32377;52.182;5.398;2023-05-10T04:55:22;138.18;;;54.80;;
46651;SDS011;32377;52.182;5.398;2023-05-10T04:57:48;138.35;;;53.60;;
46651;SDS011;32377;52.182;5.398;2023-05-10T05:00:13;131.73;;;52.50;;
46651;SDS011;32377;52.182;5.398;2023-05-10T05:02:43;131.73;;;51.15;;
46651;SDS011;32377;52.182;5.398;2023-05-10T05:05:12;137.68;;;55.22;;
46651;SDS011;32377;52.182;5.398;2023-05-10T05:07:38;144.27;;;55.30;;
46651;SDS011;32377;52.182;5.398;2023-05-10T05:10:05;141.07;;;55.03;;
46651;SDS011;32377;52.182;5.398;2023-05-10T05:12:31;143.93;;;55.05;;
46651;SDS011;32377;52.182;5.398;2023-05-10T05:14:57;150.93;;;57.17;;
46651;SDS011;32377;52.182;5.398;2023-05-10T05:17:23;144.57;;;56.90;;
46651;SDS011;32377;52.182;5.398;2023-05-10T05:19:48;151.73;;;56.85;;
46651;SDS011;32377;52.182;5.398;2023-05-10T05:22:14;138.10;;;54.08;;
46651;SDS011;32377;52.182;5.398;2023-05-10T05:24:39;160.75;;;55.47;;
46651;SDS011;32377;52.182;5.398;2023-05-10T05:27:05;145.18;;;52.13;;
46651;SDS011;32377;52.182;5.398;2023-05-10T05:29:31;135.85;;;50.88;;
46651;SDS011;32377;52.182;5.398;2023-05-10T05:31:57;127.15;;;51.65;;
46651;SDS011;32377;52.182;5.398;2023-05-10T05:34:22;127.43;;;50.83;;
46651;SDS011;32377;52.182;5.398;2023-05-10T05:36:49;133.20;;;51.97;;
46651;SDS011;32377;52.182;5.398;2023-05-10T05:39:15;126.53;;;49.63;;
46651;SDS011;32377;52.182;5.398;2023-05-10T05:41:41;120.20;;;49.13;;
46651;SDS011;32377;52.182;5.398;2023-05-10T05:44:07;121.40;;;49.75;;
46651;SDS011;32377;52.182;5.398;2023-05-10T05:46:33;125.82;;;50.95;;
46651;SDS011;32377;52.182;5.398;2023-05-10T05:48:58;126.43;;;50.90;;
46651;SDS011;32377;52.182;5.398;2023-05-10T05:51:24;121.18;;;48.72;;
46651;SDS011;32377;52.182;5.398;2023-05-10T05:53:50;118.55;;;46.78;;
46651;SDS011;32377;52.182;5.398;2023-05-10T05:56:16;112.07;;;45.35;;
46651;SDS011;32377;52.182;5.398;2023-05-10T05:58:42;125.15;;;48.78;;
46651;SDS011;32377;52.182;5.398;2023-05-10T06:01:09;121.07;;;46.70;;
46651;SDS011;32377;52.182;5.398;2023-05-10T06:03:34;126.10;;;47.90;;
46651;SDS011;32377;52.182;5.398;2023-05-10T06:06:00;119.53;;;48.58;;
46651;SDS011;32377;52.182;5.398;2023-05-10T06:08:26;121.35;;;47.83;;
46651;SDS011;32377;52.182;5.398;2023-05-10T06:10:51;120.40;;;49.72;;
46651;SDS011;32377;52.182;5.398;2023-05-10T06:13:17;114.35;;;45.25;;
46651;SDS011;32377;52.182;5.398;2023-05-10T06:15:42;99.15;;;42.67;;
46651;SDS011;32377;52.182;5.398;2023-05-10T06:18:08;93.65;;;39.50;;
46651;SDS011;32377;52.182;5.398;2023-05-10T06:20:33;79.45;;;36.05;;
46651;SDS011;32377;52.182;5.398;2023-05-10T06:22:59;80.20;;;35.17;;
46651;SDS011;32377;52.182;5.398;2023-05-10T06:25:25;73.35;;;34.42;;
46651;SDS011;32377;52.182;5.398;2023-05-10T06:27:50;76.18;;;33.60;;
46651;SDS011;32377;52.182;5.398;2023-05-10T06:30:20;67.00;;;31.88;;
46651;SDS011;32377;52.182;5.398;2023-05-10T06:32:48;66.57;;;33.05;;
46651;SDS011;32377;52.182;5.398;2023-05-10T06:35:13;63.65;;;30.90;;
46651;SDS011;32377;52.182;5.398;2023-05-10T06:37:39;69.85;;;29.85;;
46651;SDS011;32377;52.182;5.398;2023-05-10T06:40:05;65.35;;;30.50;;
46651;SDS011;32377;52.182;5.398;2023-05-10T06:42:31;65.95;;;30.42;;
46651;SDS011;32377;52.182;5.398;2023-05-10T06:44:57;63.35;;;28.65;;
46651;SDS011;32377;52.182;5.398;2023-05-10T06:47:22;57.50;;;28.92;;
46651;SDS011;32377;52.182;5.398;2023-05-10T06:49:48;57.47;;;28.35;;
46651;SDS011;32377;52.182;5.398;2023-05-10T06:52:13;51.50;;;26.00;;
46651;SDS011;32377;52.182;5.398;2023-05-10T06:54:39;51.83;;;26.50;;
46651;SDS011;32377;52.182;5.398;2023-05-10T06:57:04;53.60;;;25.85;;
46651;SDS011;32377;52.182;5.398;2023-05-10T06:59:30;54.47;;;27.70;;
46651;SDS011;32377;52.182;5.398;2023-05-10T07:01:56;51.45;;;26.52;;
46651;SDS011;32377;52.182;5.398;2023-05-10T07:04:22;49.38;;;24.08;;
46651;SDS011;32377;52.182;5.398;2023-05-10T07:06:47;54.45;;;24.02;;
46651;SDS011;32377;52.182;5.398;2023-05-10T07:09:14;45.53;;;23.67;;
46651;SDS011;32377;52.182;5.398;2023-05-10T07:11:40;48.53;;;23.10;;
46651;SDS011;32377;52.182;5.398;2023-05-10T07:14:06;48.83;;;22.95;;
46651;SDS011;32377;52.182;5.398;2023-05-10T07:16:31;49.75;;;24.20;;
46651;SDS011;32377;52.182;5.398;2023-05-10T07:18:57;45.83;;;22.45;;
46651;SDS011;32377;52.182;5.398;2023-05-10T07:21:23;45.13;;;23.25;;
46651;SDS011;32377;52.182;5.398;2023-05-10T07:23:53;44.97;;;23.52;;
46651;SDS011;32377;52.182;5.398;2023-05-10T07:26:19;48.78;;;23.95;;
46651;SDS011;32377;52.182;5.398;2023-05-10T07:28:45;47.80;;;21.63;;
46651;SDS011;32377;52.182;5.398;2023-05-10T07:31:11;41.92;;;20.52;;
46651;SDS011;32377;52.182;5.398;2023-05-10T07:33:37;38.45;;;21.33;;
46651;SDS011;32377;52.182;5.398;2023-05-10T07:36:03;43.80;;;22.15;;
46651;SDS011;32377;52.182;5.398;2023-05-10T07:38:28;41.63;;;20.83;;
46651;SDS011;32377;52.182;5.398;2023-05-10T07:40:54;41.33;;;21.05;;
46651;SDS011;32377;52.182;5.398;2023-05-10T07:43:19;41.17;;;21.83;;
46651;SDS011;32377;52.182;5.398;2023-05-10T07:45:45;39.90;;;20.80;;
46651;SDS011;32377;52.182;5.398;2023-05-10T07:48:11;37.88;;;20.42;;
46651;SDS011;32377;52.182;5.398;2023-05-10T07:50:36;38.00;;;20.65;;
46651;SDS011;32377;52.182;5.398;2023-05-10T07:53:02;43.47;;;20.85;;
46651;SDS011;32377;52.182;5.398;2023-05-10T07:55:27;38.95;;;19.77;;
46651;SDS011;32377;52.182;5.398;2023-05-10T07:57:53;35.10;;;18.25;;
46651;SDS011;32377;52.182;5.398;2023-05-10T08:00:19;33.20;;;17.55;;
46651;SDS011;32377;52.182;5.398;2023-05-10T08:02:45;25.65;;;14.60;;
46651;SDS011;32377;52.182;5.398;2023-05-10T08:05:11;28.60;;;15.60;;
46651;SDS011;32377;52.182;5.398;2023-05-10T08:07:37;28.50;;;15.18;;
46651;SDS011;32377;52.182;5.398;2023-05-10T08:10:03;25.88;;;15.45;;
46651;SDS011;32377;52.182;5.398;2023-05-10T08:12:29;28.35;;;16.50;;
46651;SDS011;32377;52.182;5.398;2023-05-10T08:14:55;33.95;;;18.60;;
46651;SDS011;32377;52.182;5.398;2023-05-10T08:17:21;32.33;;;18.02;;
46651;SDS011;32377;52.182;5.398;2023-05-10T08:19:46;30.67;;;17.15;;
46651;SDS011;32377;52.182;5.398;2023-05-10T08:22:12;32.63;;;17.63;;
46651;SDS011;32377;52.182;5.398;2023-05-10T08:24:37;30.08;;;17.88;;
46651;SDS011;32377;52.182;5.398;2023-05-10T08:27:07;34.63;;;17.85;;
46651;SDS011;32377;52.182;5.398;2023-05-10T08:29:33;30.38;;;16.88;;
46651;SDS011;32377;52.182;5.398;2023-05-10T08:31:59;28.25;;;16.20;;
46651;SDS011;32377;52.182;5.398;2023-05-10T08:34:25;30.33;;;16.80;;
46651;SDS011;32377;52.182;5.398;2023-05-10T08:36:51;29.77;;;16.88;;
46651;SDS011;32377;52.182;5.398;2023-05-10T08:39:17;26.60;;;15.63;;
46651;SDS011;32377;52.182;5.398;2023-05-10T08:41:43;27.40;;;15.57;;
46651;SDS011;32377;52.182;5.398;2023-05-10T08:44:11;26.95;;;15.85;;
46651;SDS011;32377;52.182;5.398;2023-05-10T08:46:37;32.45;;;16.90;;
46651;SDS011;32377;52.182;5.398;2023-05-10T08:49:09;25.58;;;15.55;;
46651;SDS011;32377;52.182;5.398;2023-05-10T08:51:38;27.20;;;16.40;;
46651;SDS011;32377;52.182;5.398;2023-05-10T08:54:08;28.08;;;16.55;;
46651;SDS011;32377;52.182;5.398;2023-05-10T08:56:34;25.45;;;16.48;;
46651;SDS011;32377;52.182;5.398;2023-05-10T08:59:01;26.83;;;15.85;;
46651;SDS011;32377;52.182;5.398;2023-05-10T09:01:26;26.00;;;15.27;;
46651;SDS011;32377;52.182;5.398;2023-05-10T09:03:53;25.15;;;15.48;;
46651;SDS011;32377;52.182;5.398;2023-05-10T09:06:18;29.67;;;15.57;;
46651;SDS011;32377;52.182;5.398;2023-05-10T09:08:44;23.05;;;13.57;;
46651;SDS011;32377;52.182;5.398;2023-05-10T09:11:11;17.25;;;11.85;;
46651;SDS011;32377;52.182;5.398;2023-05-10T09:13:37;18.90;;;12.40;;
46651;SDS011;32377;52.182;5.398;2023-05-10T09:16:03;20.05;;;12.45;;
46651;SDS011;32377;52.182;5.398;2023-05-10T09:18:29;12.80;;;8.07;;
46651;SDS011;32377;52.182;5.398;2023-05-10T09:20:55;13.57;;;7.47;;
46651;SDS011;32377;52.182;5.398;2023-05-10T09:23:21;11.10;;;7.63;;
46651;SDS011;32377;52.182;5.398;2023-05-10T09:25:47;12.98;;;8.23;;
46651;SDS011;32377;52.182;5.398;2023-05-10T09:28:12;11.07;;;6.82;;
46651;SDS011;32377;52.182;5.398;2023-05-10T09:30:38;10.50;;;6.50;;
46651;SDS011;32377;52.182;5.398;2023-05-10T09:33:04;7.85;;;5.60;;
46651;SDS011;32377;52.182;5.398;2023-05-10T09:35:30;12.15;;;6.45;;
46651;SDS011;32377;52.182;5.398;2023-05-10T09:37:59;12.38;;;6.28;;
46651;SDS011;32377;52.182;5.398;2023-05-10T09:40:29;9.25;;;6.28;;
46651;SDS011;32377;52.182;5.398;2023-05-10T09:45:28;13.10;;;6.28;;
46651;SDS011;32377;52.182;5.398;2023-05-10T09:47:55;14.20;;;7.00;;
46651;SDS011;32377;52.182;5.398;2023-05-10T09:50:21;11.20;;;6.70;;
46651;SDS011;32377;52.182;5.398;2023-05-10T09:52:48;8.43;;;5.50;;
46651;SDS011;32377;52.182;5.398;2023-05-10T09:55:16;7.82;;;5.20;;
46651;SDS011;32377;52.182;5.398;2023-05-10T09:59:24;8.25;;;5.63;;
46651;SDS011;32377;52.182;5.398;2023-05-10T10:01:51;9.40;;;6.05;;
46651;SDS011;32377;52.182;5.398;2023-05-10T10:04:24;11.07;;;5.45;;
46651;SDS011;32377;52.182;5.398;2023-05-10T10:07:03;9.63;;;5.40;;
46651;SDS011;32377;52.182;5.398;2023-05-10T10:09:29;8.60;;;5.47;;
46651;SDS011;32377;52.182;5.398;2023-05-10T10:11:55;8.95;;;6.05;;
46651;SDS011;32377;52.182;5.398;2023-05-10T10:14:22;8.50;;;5.93;;
46651;SDS011;32377;52.182;5.398;2023-05-10T10:16:49;11.38;;;7.70;;
46651;SDS011;32377;52.182;5.398;2023-05-10T10:19:16;11.40;;;7.45;;
46651;SDS011;32377;52.182;5.398;2023-05-10T10:21:45;14.23;;;8.80;;
46651;SDS011;32377;52.182;5.398;2023-05-10T10:24:11;12.30;;;7.90;;
46651;SDS011;32377;52.182;5.398;2023-05-10T10:26:37;11.60;;;8.00;;
46651;SDS011;32377;52.182;5.398;2023-05-10T10:32:03;12.48;;;8.05;;
46651;SDS011;32377;52.182;5.398;2023-05-10T10:34:35;14.77;;;8.57;;
46651;SDS011;32377;52.182;5.398;2023-05-10T10:37:03;15.27;;;8.50;;
46651;SDS011;32377;52.182;5.398;2023-05-10T10:39:30;14.35;;;9.07;;
46651;SDS011;32377;52.182;5.398;2023-05-10T10:41:57;15.02;;;8.30;;
46651;SDS011;32377;52.182;5.398;2023-05-10T10:47:00;13.88;;;9.18;;
46651;SDS011;32377;52.182;5.398;2023-05-10T10:52:27;16.02;;;8.50;;
46651;SDS011;32377;52.182;5.398;2023-05-10T10:55:11;10.05;;;6.97;;
46651;SDS011;32377;52.182;5.398;2023-05-10T10:57:46;10.38;;;7.50;;
46651;SDS011;32377;52.182;5.398;2023-05-10T11:00:23;9.32;;;6.78;;
46651;SDS011;32377;52.182;5.398;2023-05-10T11:03:05;11.20;;;6.68;;
46651;SDS011;32377;52.182;5.398;2023-05-10T11:07:58;9.68;;;7.00;;
46651;SDS011;32377;52.182;5.398;2023-05-10T11:10:25;10.75;;;6.90;;
46651;SDS011;32377;52.182;5.398;2023-05-10T11:12:52;11.60;;;7.03;;
46651;SDS011;32377;52.182;5.398;2023-05-10T11:15:19;10.98;;;6.93;;
46651;SDS011;32377;52.182;5.398;2023-05-10T11:17:45;10.38;;;7.53;;
46651;SDS011;32377;52.182;5.398;2023-05-10T11:20:16;10.77;;;7.80;;
46651;SDS011;32377;52.182;5.398;2023-05-10T11:22:54;13.57;;;7.88;;
46651;SDS011;32377;52.182;5.398;2023-05-10T11:25:20;17.00;;;8.07;;
46651;SDS011;32377;52.182;5.398;2023-05-10T11:27:51;12.00;;;7.72;;
46651;SDS011;32377;52.182;5.398;2023-05-10T11:30:17;12.15;;;7.78;;
46651;SDS011;32377;52.182;5.398;2023-05-10T11:32:42;12.93;;;7.32;;
46651;SDS011;32377;52.182;5.398;2023-05-10T11:35:09;10.23;;;6.80;;
46651;SDS011;32377;52.182;5.398;2023-05-10T11:37:36;10.68;;;6.82;;
46651;SDS011;32377;52.182;5.398;2023-05-10T11:40:06;9.48;;;6.85;;
46651;SDS011;32377;52.182;5.398;2023-05-10T11:42:37;13.10;;;7.95;;
46651;SDS011;32377;52.182;5.398;2023-05-10T11:45:03;10.88;;;7.55;;
46651;SDS011;32377;52.182;5.398;2023-05-10T11:47:30;12.75;;;7.35;;
46651;SDS011;32377;52.182;5.398;2023-05-10T11:49:55;12.93;;;7.35;;
46651;SDS011;32377;52.182;5.398;2023-05-10T11:52:22;16.50;;;7.43;;
46651;SDS011;32377;52.182;5.398;2023-05-10T11:54:52;8.55;;;5.80;;
46651;SDS011;32377;52.182;5.398;2023-05-10T11:57:19;8.25;;;5.38;;
46651;SDS011;32377;52.182;5.398;2023-05-10T11:59:45;10.63;;;5.70;;
46651;SDS011;32377;52.182;5.398;2023-05-10T12:02:13;9.50;;;5.97;;
46651;SDS011;32377;52.182;5.398;2023-05-10T12:04:38;9.63;;;6.20;;
46651;SDS011;32377;52.182;5.398;2023-05-10T12:07:04;7.47;;;4.78;;
46651;SDS011;32377;52.182;5.398;2023-05-10T12:09:30;9.82;;;5.35;;
46651;SDS011;32377;52.182;5.398;2023-05-10T12:11:56;8.70;;;5.07;;
46651;SDS011;32377;52.182;5.398;2023-05-10T12:14:24;8.27;;;5.22;;
46651;SDS011;32377;52.182;5.398;2023-05-10T12:16:50;7.25;;;5.07;;
46651;SDS011;32377;52.182;5.398;2023-05-10T12:19:19;9.25;;;5.18;;
46651;SDS011;32377;52.182;5.398;2023-05-10T12:21:46;8.77;;;5.20;;
46651;SDS011;32377;52.182;5.398;2023-05-10T12:24:12;9.57;;;5.45;;
46651;SDS011;32377;52.182;5.398;2023-05-10T12:26:37;8.15;;;4.97;;
46651;SDS011;32377;52.182;5.398;2023-05-10T12:29:13;9.57;;;5.20;;
46651;SDS011;32377;52.182;5.398;2023-05-10T12:34:32;7.00;;;4.75;;
46651;SDS011;32377;52.182;5.398;2023-05-10T12:36:59;7.25;;;4.78;;
46651;SDS011;32377;52.182;5.398;2023-05-10T12:39:25;9.20;;;4.03;;
46651;SDS011;32377;52.182;5.398;2023-05-10T12:41:51;4.88;;;2.85;;
46651;SDS011;32377;52.182;5.398;2023-05-10T12:44:17;5.25;;;2.97;;
46651;SDS011;32377;52.182;5.398;2023-05-10T12:46:43;3.42;;;2.63;;
46651;SDS011;32377;52.182;5.398;2023-05-10T12:49:09;5.38;;;2.78;;
46651;SDS011;32377;52.182;5.398;2023-05-10T12:51:35;4.47;;;2.55;;
46651;SDS011;32377;52.182;5.398;2023-05-10T12:54:02;4.15;;;2.53;;
46651;SDS011;32377;52.182;5.398;2023-05-10T12:56:27;4.18;;;2.60;;
46651;SDS011;32377;52.182;5.398;2023-05-10T12:58:53;4.82;;;3.10;;
46651;SDS011;32377;52.182;5.398;2023-05-10T13:01:18;4.75;;;3.00;;
46651;SDS011;32377;52.182;5.398;2023-05-10T13:03:44;5.00;;;2.92;;
46651;SDS011;32377;52.182;5.398;2023-05-10T13:06:10;4.38;;;2.83;;
46651;SDS011;32377;52.182;5.398;2023-05-10T13:08:35;5.00;;;2.65;;
46651;SDS011;32377;52.182;5.398;2023-05-10T13:11:01;4.38;;;2.70;;
46651;SDS011;32377;52.182;5.398;2023-05-10T13:13:27;4.68;;;2.50;;
46651;SDS011;32377;52.182;5.398;2023-05-10T13:15:53;4.07;;;2.60;;
46651;SDS011;32377;52.182;5.398;2023-05-10T13:18:19;4.30;;;2.92;;
46651;SDS011;32377;52.182;5.398;2023-05-10T13:20:44;4.70;;;2.72;;
46651;SDS011;32377;52.182;5.398;2023-05-10T13:23:10;5.45;;;2.67;;
46651;SDS011;32377;52.182;5.398;2023-05-10T13:25:36;5.30;;;2.75;;
46651;SDS011;32377;52.182;5.398;2023-05-10T13:28:01;6.80;;;3.10;;
46651;SDS011;32377;52.182;5.398;2023-05-10T13:30:27;10.90;;;6.07;;
46651;SDS011;32377;52.182;5.398;2023-05-10T13:32:53;11.40;;;8.05;;
46651;SDS011;32377;52.182;5.398;2023-05-10T13:35:19;16.05;;;9.68;;
46651;SDS011;32377;52.182;5.398;2023-05-10T13:37:45;14.35;;;8.60;;
46651;SDS011;32377;52.182;5.398;2023-05-10T13:40:11;14.82;;;8.70;;
46651;SDS011;32377;52.182;5.398;2023-05-10T13:42:36;15.48;;;9.32;;
46651;SDS011;32377;52.182;5.398;2023-05-10T13:45:02;16.23;;;9.35;;
46651;SDS011;32377;52.182;5.398;2023-05-10T13:47:28;17.33;;;10.05;;
46651;SDS011;32377;52.182;5.398;2023-05-10T13:49:54;17.73;;;11.13;;
46651;SDS011;32377;52.182;5.398;2023-05-10T13:52:19;21.00;;;11.93;;
46651;SDS011;32377;52.182;5.398;2023-05-10T13:54:45;18.92;;;11.50;;
46651;SDS011;32377;52.182;5.398;2023-05-10T13:57:11;29.10;;;12.63;;
46651;SDS011;32377;52.182;5.398;2023-05-10T13:59:38;17.60;;;10.70;;
46651;SDS011;32377;52.182;5.398;2023-05-10T14:02:04;20.10;;;11.13;;
46651;SDS011;32377;52.182;5.398;2023-05-10T14:04:30;18.00;;;10.70;;
46651;SDS011;32377;52.182;5.398;2023-05-10T14:06:56;21.13;;;11.52;;
46651;SDS011;32377;52.182;5.398;2023-05-10T14:09:22;18.27;;;10.63;;
46651;SDS011;32377;52.182;5.398;2023-05-10T14:11:47;18.23;;;11.25;;
46651;SDS011;32377;52.182;5.398;2023-05-10T14:14:13;19.67;;;9.93;;
46651;SDS011;32377;52.182;5.398;2023-05-10T14:16:41;19.15;;;10.60;;
46651;SDS011;32377;52.182;5.398;2023-05-10T14:19:08;23.05;;;11.40;;
46651;SDS011;32377;52.182;5.398;2023-05-10T14:21:34;20.33;;;11.88;;
46651;SDS011;32377;52.182;5.398;2023-05-10T14:23:59;22.63;;;10.65;;
46651;SDS011;32377;52.182;5.398;2023-05-10T14:26:25;19.08;;;10.35;;
46651;SDS011;32377;52.182;5.398;2023-05-10T14:28:51;22.05;;;10.00;;
46651;SDS011;32377;52.182;5.398;2023-05-10T14:31:17;17.58;;;9.63;;
46651;SDS011;32377;52.182;5.398;2023-05-10T14:33:45;18.42;;;10.40;;
46651;SDS011;32377;52.182;5.398;2023-05-10T14:36:13;16.00;;;9.57;;
46651;SDS011;32377;52.182;5.398;2023-05-10T14:38:39;19.85;;;10.23;;
46651;SDS011;32377;52.182;5.398;2023-05-10T14:41:05;16.02;;;10.27;;
46651;SDS011;32377;52.182;5.398;2023-05-10T14:43:30;18.73;;;10.82;;
46651;SDS011;32377;52.182;5.398;2023-05-10T14:45:56;17.92;;;11.57;;
46651;SDS011;32377;52.182;5.398;2023-05-10T14:48:22;18.55;;;10.27;;
46651;SDS011;32377;52.182;5.398;2023-05-10T14:50:47;21.77;;;11.68;;
46651;SDS011;32377;52.182;5.398;2023-05-10T14:53:14;21.48;;;11.23;;
46651;SDS011;32377;52.182;5.398;2023-05-10T14:55:40;16.55;;;10.65;;
46651;SDS011;32377;52.182;5.398;2023-05-10T14:58:06;25.20;;;12.25;;
46651;SDS011;32377;52.182;5.398;2023-05-10T15:00:31;19.48;;;11.50;;